Newgulf, Texas
Current Conditions -  °F | °C
As of 1:15 AM on Saturday 20 Dec 2014 (Local Time) from KARM Reporting Station
Haze Haze  
Wind Chill: 52°   Ceiling: 700
Heat Index: 52°   Visibility: 4mi
Dew Point: 51°   Wind: 8mph
Humidity: 97%   Direction: 10°N
Pressure: 30.15"   Gusts: NA
Location:  29.25°N, 95.9°W
Report Text: KARM 200715Z AUTO 01007KT 4SM BR OVC007 11/11 A3015 RMK AO2 T01100105
Loading
Personal Weather Stations






























Interactive Weather Map New forecast layout! Learn more

10-Day Weather Forecast

Advertisements
Track Severe Weather on mobile